Time;durP1;ratioP1;P1;durP2;ratioP2;P2;SDS_P1;SDS_P2;PMS_P1;PMS_P2;Temp;Humidity;BMP_temperature;BMP_pressure;BME280_temperature;BME280_humidity;BME280_pressure;Samples;Min_cycle;Max_cycle;Signal;HPM_P1;HPM_P2
2023/01/10 00:00:23;;;;;;;85.03;46.63;;;;;;;;;;5053972;28;20215;-79
2023/01/10 00:02:49;;;;;;;91.13;47.30;;;;;;;;;;5037083;28;20177;-79
2023/01/10 00:05:16;;;;;;;81.83;46.50;;;;;;;;;;5053439;28;20207;-80
2023/01/10 00:07:42;;;;;;;95.37;50.00;;;;;;;;;;5069290;28;20732;-79
2023/01/10 00:10:08;;;;;;;85.77;48.83;;;;;;;;;;5070045;28;20230;-79
2023/01/10 00:15:19;;;;;;;86.90;48.13;;;;;;;;;;5068547;28;20229;-79
2023/01/10 00:17:45;;;;;;;89.13;46.77;;;;;;;;;;5055444;28;20196;-79
2023/01/10 00:20:11;;;;;;;90.70;47.93;;;;;;;;;;5053375;28;20297;-79
2023/01/10 00:22:37;;;;;;;81.47;47.70;;;;;;;;;;5053911;28;20254;-78
2023/01/10 00:25:03;;;;;;;84.67;46.80;;;;;;;;;;5053568;28;20703;-79
2023/01/10 00:27:29;;;;;;;86.30;46.83;;;;;;;;;;5053184;28;20183;-79
2023/01/10 00:29:57;;;;;;;89.93;47.13;;;;;;;;;;5053993;28;20177;-79
2023/01/10 00:32:23;;;;;;;97.60;50.93;;;;;;;;;;5053637;28;20576;-78
2023/01/10 00:34:49;;;;;;;94.47;51.50;;;;;;;;;;5083860;28;20179;-79
2023/01/10 00:37:15;;;;;;;98.37;52.37;;;;;;;;;;5071289;28;20648;-79
2023/01/10 00:39:41;;;;;;;106.00;53.27;;;;;;;;;;5052617;28;20216;-79
2023/01/10 00:44:51;;;;;;;96.73;51.33;;;;;;;;;;5068936;28;20242;-79
2023/01/10 00:47:18;;;;;;;87.67;49.43;;;;;;;;;;5070618;28;20184;-79
2023/01/10 00:49:44;;;;;;;96.13;50.70;;;;;;;;;;5069820;28;20195;-78
2023/01/10 00:52:10;;;;;;;101.57;52.57;;;;;;;;;;5053458;28;20275;-80
2023/01/10 00:54:35;;;;;;;96.23;51.47;;;;;;;;;;5086817;28;20227;-79
2023/01/10 00:57:01;;;;;;;105.13;53.03;;;;;;;;;;5050846;28;20639;-79
2023/01/10 00:59:28;;;;;;;107.20;54.87;;;;;;;;;;5080281;28;20196;-79
2023/01/10 01:01:54;;;;;;;104.63;53.27;;;;;;;;;;5067858;28;20226;-78
2023/01/10 01:04:21;;;;;;;105.50;53.67;;;;;;;;;;5052568;28;20881;-79
2023/01/10 01:06:47;;;;;;;94.80;51.63;;;;;;;;;;5051700;28;20187;-79
2023/01/10 01:09:14;;;;;;;97.70;53.33;;;;;;;;;;5052487;28;20180;-79
2023/01/10 01:11:40;;;;;;;99.50;53.00;;;;;;;;;;5052540;28;20177;-78
2023/01/10 01:14:06;;;;;;;99.33;53.80;;;;;;;;;;5052663;28;20209;-79
2023/01/10 01:16:32;;;;;;;95.57;52.23;;;;;;;;;;5083291;28;20181;-79
2023/01/10 01:18:58;;;;;;;89.47;52.23;;;;;;;;;;5068440;28;20177;-79
2023/01/10 01:21:27;;;;;;;97.93;54.47;;;;;;;;;;5053269;28;20262;-79
2023/01/10 01:23:55;;;;;;;91.13;52.23;;;;;;;;;;5052263;28;20184;-79
2023/01/10 01:26:22;;;;;;;95.57;53.40;;;;;;;;;;5052356;28;20653;-79
2023/01/10 01:28:48;;;;;;;98.90;51.90;;;;;;;;;;5052438;28;20650;-79
2023/01/10 01:31:14;;;;;;;92.00;51.77;;;;;;;;;;5051223;28;20181;-79
2023/01/10 01:33:40;;;;;;;85.30;51.63;;;;;;;;;;5052089;28;20651;-79
2023/01/10 01:36:13;;;;;;;86.43;49.50;;;;;;;;;;5053066;28;20185;-79
2023/01/10 01:38:39;;;;;;;86.70;48.67;;;;;;;;;;5051908;28;20173;-79
2023/01/10 01:41:55;;;;;;;84.60;49.63;;;;;;;;;;5052313;28;20244;-79
2023/01/10 01:44:04;;;;;;;90.77;51.20;;;;;;;;;;5069221;28;20233;-79
2023/01/10 01:46:32;;;;;;;86.17;50.17;;;;;;;;;;5083407;28;20253;-78
2023/01/10 01:48:58;;;;;;;84.63;49.70;;;;;;;;;;5050616;28;20177;-79
2023/01/10 01:51:26;;;;;;;88.70;51.53;;;;;;;;;;5048931;28;20310;-79
2023/01/10 01:53:54;;;;;;;96.17;54.97;;;;;;;;;;5051938;28;20582;-79
2023/01/10 01:56:25;;;;;;;92.97;53.70;;;;;;;;;;5052261;28;20185;-79
2023/01/10 01:58:54;;;;;;;98.43;53.43;;;;;;;;;;5052060;28;20326;-80
2023/01/10 02:01:21;;;;;;;85.57;50.40;;;;;;;;;;5052423;28;20292;-79
2023/01/10 02:03:49;;;;;;;87.13;50.27;;;;;;;;;;5085598;28;20172;-79
2023/01/10 02:06:16;;;;;;;91.30;52.00;;;;;;;;;;5071769;28;20194;-79
2023/01/10 02:08:45;;;;;;;88.00;52.63;;;;;;;;;;5052652;28;20238;-79
2023/01/10 02:11:11;;;;;;;91.53;52.77;;;;;;;;;;5052071;28;20189;-79
2023/01/10 02:13:42;;;;;;;88.57;52.23;;;;;;;;;;5051891;28;20182;-78
2023/01/10 02:16:08;;;;;;;84.23;50.43;;;;;;;;;;5051613;28;20189;-79
2023/01/10 02:18:35;;;;;;;86.00;50.40;;;;;;;;;;5085759;28;20184;-79
2023/01/10 02:21:10;;;;;;;92.07;52.23;;;;;;;;;;5067813;28;20205;-79
2023/01/10 02:23:56;;;;;;;88.93;52.43;;;;;;;;;;5068152;28;20209;-79
2023/01/10 02:26:48;;;;;;;88.47;52.33;;;;;;;;;;5052025;28;20185;-79
2023/01/10 02:29:23;;;;;;;90.03;52.47;;;;;;;;;;5004770;28;20554;-79
2023/01/10 02:32:08;;;;;;;89.33;53.53;;;;;;;;;;5017182;28;20213;-79
2023/01/10 02:34:36;;;;;;;94.97;55.20;;;;;;;;;;4991104;28;20277;-79
2023/01/10 02:37:12;;;;;;;97.67;56.57;;;;;;;;;;4990507;28;20273;-79
2023/01/10 02:39:53;;;;;;;98.60;57.30;;;;;;;;;;5004898;28;20254;-79
2023/01/10 02:42:25;;;;;;;94.10;55.13;;;;;;;;;;5010459;28;20187;-79
2023/01/10 02:45:04;;;;;;;97.53;54.13;;;;;;;;;;5010886;28;20194;-79
2023/01/10 02:47:36;;;;;;;92.50;53.43;;;;;;;;;;5006912;28;20322;-78
2023/01/10 02:50:21;;;;;;;85.23;49.63;;;;;;;;;;5010728;28;20202;-79
2023/01/10 02:52:47;;;;;;;82.60;49.03;;;;;;;;;;5010867;28;20205;-79
2023/01/10 02:55:13;;;;;;;77.47;49.17;;;;;;;;;;5011542;28;20218;-79
2023/01/10 02:57:49;;;;;;;80.83;49.50;;;;;;;;;;5011157;28;20741;-79
2023/01/10 03:00:24;;;;;;;78.73;49.03;;;;;;;;;;5011592;28;20684;-79
2023/01/10 03:03:00;;;;;;;85.73;51.63;;;;;;;;;;5027754;28;20233;-78
2023/01/10 03:05:37;;;;;;;82.87;49.47;;;;;;;;;;5019239;28;20549;-79
2023/01/10 03:08:22;;;;;;;92.17;51.97;;;;;;;;;;5051761;28;20558;-79
2023/01/10 03:10:59;;;;;;;84.83;51.70;;;;;;;;;;5089457;28;20602;-78
2023/01/10 03:13:37;;;;;;;82.33;48.90;;;;;;;;;;5054373;28;20181;-79
2023/01/10 03:16:05;;;;;;;84.43;50.60;;;;;;;;;;5054560;28;20186;-79
2023/01/10 03:18:49;;;;;;;86.27;50.10;;;;;;;;;;5052037;28;20619;-78
2023/01/10 03:21:16;;;;;;;95.83;52.90;;;;;;;;;;5089283;28;20550;-79
2023/01/10 03:23:42;;;;;;;84.10;51.80;;;;;;;;;;5045918;28;20182;-79
2023/01/10 03:26:09;;;;;;;87.97;51.87;;;;;;;;;;5054606;28;20259;-79
2023/01/10 03:28:38;;;;;;;88.90;51.63;;;;;;;;;;5054535;28;20185;-78
2023/01/10 03:31:07;;;;;;;87.80;51.50;;;;;;;;;;5052239;28;20193;-79
2023/01/10 03:33:34;;;;;;;89.53;52.07;;;;;;;;;;5073645;28;20250;-79
2023/01/10 03:36:00;;;;;;;87.30;51.93;;;;;;;;;;5068783;28;20211;-79
2023/01/10 03:38:31;;;;;;;99.57;54.47;;;;;;;;;;5070144;28;20192;-79
2023/01/10 03:41:07;;;;;;;100.50;54.10;;;;;;;;;;5054098;28;20247;-79
2023/01/10 03:46:41;;;;;;;99.03;54.80;;;;;;;;;;5058073;28;20213;-79
2023/01/10 03:49:08;;;;;;;89.27;53.03;;;;;;;;;;5085862;28;20248;-79
2023/01/10 03:51:36;;;;;;;95.27;54.33;;;;;;;;;;5068294;28;20238;-78
2023/01/10 03:54:02;;;;;;;95.47;54.40;;;;;;;;;;5053821;28;20181;-78
2023/01/10 03:56:28;;;;;;;103.93;54.87;;;;;;;;;;5053830;28;20180;-79
2023/01/10 03:58:54;;;;;;;98.30;52.73;;;;;;;;;;5070663;28;20797;-78
2023/01/10 04:01:20;;;;;;;93.33;53.93;;;;;;;;;;5071779;28;20244;-78
2023/01/10 04:03:46;;;;;;;87.87;51.80;;;;;;;;;;5054462;28;20200;-78
2023/01/10 04:06:12;;;;;;;90.77;52.43;;;;;;;;;;5049721;28;20209;-79
2023/01/10 04:08:38;;;;;;;98.57;54.20;;;;;;;;;;5055201;28;20661;-79
2023/01/10 04:11:05;;;;;;;84.33;51.93;;;;;;;;;;5069551;28;20243;-79
2023/01/10 04:13:31;;;;;;;85.87;51.30;;;;;;;;;;5071978;28;20625;-79
2023/01/10 04:15:59;;;;;;;84.67;49.93;;;;;;;;;;5087048;28;20176;-79
2023/01/10 04:18:25;;;;;;;92.93;52.80;;;;;;;;;;5069996;28;20254;-79
2023/01/10 04:20:51;;;;;;;89.87;51.47;;;;;;;;;;5053177;28;20525;-79
2023/01/10 04:23:17;;;;;;;94.97;54.63;;;;;;;;;;5053534;28;20177;-79
2023/01/10 04:25:46;;;;;;;84.77;50.97;;;;;;;;;;5056836;28;20270;-79
2023/01/10 04:28:12;;;;;;;82.50;49.80;;;;;;;;;;5051850;28;20200;-79
2023/01/10 04:30:38;;;;;;;80.40;48.87;;;;;;;;;;5054067;28;20177;-79
2023/01/10 04:33:06;;;;;;;85.17;51.07;;;;;;;;;;5053772;28;20188;-79
2023/01/10 04:35:32;;;;;;;83.87;52.10;;;;;;;;;;5083345;28;20197;-79
2023/01/10 04:37:58;;;;;;;83.47;49.77;;;;;;;;;;5067806;28;20245;-79
2023/01/10 04:40:24;;;;;;;73.70;47.33;;;;;;;;;;5054403;28;20208;-79
2023/01/10 04:42:50;;;;;;;80.00;49.40;;;;;;;;;;5070722;28;20220;-79
2023/01/10 04:45:19;;;;;;;89.23;50.07;;;;;;;;;;5053819;28;20268;-79
2023/01/10 04:47:48;;;;;;;87.83;51.77;;;;;;;;;;5054175;28;20226;-79
2023/01/10 04:50:14;;;;;;;79.97;48.73;;;;;;;;;;5084450;28;20276;-79
2023/01/10 04:52:42;;;;;;;80.50;49.70;;;;;;;;;;5053259;28;20239;-79
2023/01/10 04:55:08;;;;;;;80.10;49.47;;;;;;;;;;5052396;28;20192;-78
2023/01/10 04:57:34;;;;;;;78.40;48.07;;;;;;;;;;5054012;28;20218;-79
2023/01/10 05:00:00;;;;;;;77.83;48.40;;;;;;;;;;5053129;28;20242;-79
2023/01/10 05:02:26;;;;;;;73.33;47.93;;;;;;;;;;5052201;28;20181;-79
2023/01/10 05:04:52;;;;;;;74.57;46.60;;;;;;;;;;5053200;28;20184;-79
2023/01/10 05:07:18;;;;;;;78.10;48.80;;;;;;;;;;5052329;28;20208;-79
2023/01/10 05:09:44;;;;;;;75.83;47.73;;;;;;;;;;5051244;28;20231;-79
2023/01/10 05:12:10;;;;;;;71.03;47.87;;;;;;;;;;5070076;28;20290;-79
2023/01/10 05:14:36;;;;;;;80.97;47.50;;;;;;;;;;5070708;28;20317;-81
2023/01/10 05:17:02;;;;;;;77.23;46.73;;;;;;;;;;5053104;28;20580;-81
2023/01/10 05:19:28;;;;;;;79.23;49.03;;;;;;;;;;5051077;28;20183;-82
2023/01/10 05:21:54;;;;;;;73.77;47.53;;;;;;;;;;5087052;28;20209;-80
2023/01/10 05:24:21;;;;;;;71.03;47.60;;;;;;;;;;5071798;28;20204;-83
2023/01/10 05:26:47;;;;;;;72.00;46.60;;;;;;;;;;5053306;28;20181;-82
2023/01/10 05:29:19;;;;;;;67.77;46.23;;;;;;;;;;5085976;28;20189;-77
2023/01/10 05:31:45;;;;;;;71.10;46.80;;;;;;;;;;5051333;28;20182;-80
2023/01/10 05:34:12;;;;;;;74.23;47.87;;;;;;;;;;5053140;28;20671;-80
2023/01/10 05:36:38;;;;;;;71.13;46.37;;;;;;;;;;5051165;28;20181;-79
2023/01/10 05:39:04;;;;;;;71.67;47.57;;;;;;;;;;5067227;28;20183;-80
2023/01/10 05:41:30;;;;;;;65.33;44.73;;;;;;;;;;5063118;28;20209;-81
2023/01/10 05:43:56;;;;;;;69.27;45.73;;;;;;;;;;5090548;28;20757;-81
2023/01/10 05:46:22;;;;;;;74.23;48.07;;;;;;;;;;5098233;28;20179;-80
2023/01/10 05:48:48;;;;;;;76.40;47.97;;;;;;;;;;5070960;28;20191;-80
2023/01/10 05:51:14;;;;;;;72.57;47.27;;;;;;;;;;5068523;28;20633;-79
2023/01/10 05:53:40;;;;;;;79.17;49.57;;;;;;;;;;5057469;28;20242;-83
2023/01/10 05:56:06;;;;;;;71.77;46.90;;;;;;;;;;5057827;28;20180;-82
2023/01/10 05:58:32;;;;;;;69.20;45.27;;;;;;;;;;5053568;28;20304;-82
2023/01/10 06:00:58;;;;;;;68.53;45.13;;;;;;;;;;5053059;28;20709;-82
2023/01/10 06:03:25;;;;;;;67.07;44.73;;;;;;;;;;5054506;28;20183;-79
2023/01/10 06:05:51;;;;;;;68.00;45.83;;;;;;;;;;5088344;28;20213;-82
2023/01/10 06:08:17;;;;;;;70.80;46.43;;;;;;;;;;5053383;28;20209;-78
2023/01/10 06:10:46;;;;;;;73.90;46.30;;;;;;;;;;5093456;28;20215;-79
2023/01/10 06:13:13;;;;;;;71.47;46.47;;;;;;;;;;5052666;28;20197;-79
2023/01/10 06:15:39;;;;;;;67.27;46.90;;;;;;;;;;5073053;28;20583;-79
2023/01/10 06:18:05;;;;;;;67.10;46.17;;;;;;;;;;5045389;28;20182;-79
2023/01/10 06:20:31;;;;;;;64.47;44.63;;;;;;;;;;5084830;28;20261;-79
2023/01/10 06:22:59;;;;;;;67.37;44.60;;;;;;;;;;5060002;28;20208;-79
2023/01/10 06:25:26;;;;;;;72.73;45.43;;;;;;;;;;5053097;28;20653;-78
2023/01/10 06:27:52;;;;;;;64.37;44.87;;;;;;;;;;5093531;28;20260;-79
2023/01/10 06:30:18;;;;;;;64.47;42.23;;;;;;;;;;5059352;28;20273;-79
2023/01/10 06:32:44;;;;;;;66.47;43.70;;;;;;;;;;5058554;28;20192;-78
2023/01/10 06:35:10;;;;;;;62.23;42.37;;;;;;;;;;5059466;28;20222;-78
2023/01/10 06:37:36;;;;;;;59.00;41.63;;;;;;;;;;5055892;28;20213;-79
2023/01/10 06:40:02;;;;;;;67.77;41.87;;;;;;;;;;5087286;28;20203;-79
2023/01/10 06:42:28;;;;;;;57.17;39.40;;;;;;;;;;5057071;28;20228;-80
2023/01/10 06:44:54;;;;;;;60.63;39.57;;;;;;;;;;5054654;28;20557;-80
2023/01/10 06:47:20;;;;;;;58.27;39.53;;;;;;;;;;5060058;28;20272;-81
2023/01/10 06:49:46;;;;;;;59.97;40.13;;;;;;;;;;5069909;28;20599;-79
2023/01/10 06:52:12;;;;;;;55.97;37.97;;;;;;;;;;5063497;28;20184;-82
2023/01/10 06:54:40;;;;;;;59.10;39.10;;;;;;;;;;5071600;28;20622;-81
2023/01/10 06:57:07;;;;;;;55.93;37.73;;;;;;;;;;5055294;28;20185;-81
2023/01/10 06:59:33;;;;;;;56.60;39.47;;;;;;;;;;5073920;28;20234;-81
2023/01/10 07:01:59;;;;;;;56.63;38.63;;;;;;;;;;5057656;28;20209;-79
2023/01/10 07:04:25;;;;;;;57.80;38.47;;;;;;;;;;5059916;28;20188;-79
2023/01/10 07:06:51;;;;;;;56.77;38.93;;;;;;;;;;5066746;28;20192;-79
2023/01/10 07:09:17;;;;;;;58.87;38.20;;;;;;;;;;5054114;28;20181;-81
2023/01/10 07:11:44;;;;;;;55.97;37.33;;;;;;;;;;5068797;28;21022;-79
2023/01/10 07:14:10;;;;;;;56.97;37.07;;;;;;;;;;5057780;28;20189;-79
2023/01/10 07:16:36;;;;;;;57.60;37.83;;;;;;;;;;5055049;28;20177;-80
2023/01/10 07:19:02;;;;;;;56.37;37.70;;;;;;;;;;5058077;28;20180;-79
2023/01/10 07:21:28;;;;;;;55.43;37.83;;;;;;;;;;5056550;28;20296;-78
2023/01/10 07:23:54;;;;;;;60.23;39.20;;;;;;;;;;5057399;28;20204;-80
2023/01/10 07:26:20;;;;;;;52.67;37.53;;;;;;;;;;5054812;28;20225;-80
2023/01/10 07:28:49;;;;;;;57.20;37.57;;;;;;;;;;5059057;28;20328;-80
2023/01/10 07:31:16;;;;;;;59.17;38.00;;;;;;;;;;5055447;28;20176;-80
2023/01/10 07:33:42;;;;;;;56.30;37.90;;;;;;;;;;5066038;28;20190;-80
2023/01/10 07:36:08;;;;;;;55.30;36.57;;;;;;;;;;5057818;28;20189;-81
2023/01/10 07:38:34;;;;;;;56.33;37.43;;;;;;;;;;5057405;28;20186;-81
2023/01/10 07:41:02;;;;;;;51.67;35.70;;;;;;;;;;5063186;28;20223;-81
2023/01/10 07:43:28;;;;;;;55.10;36.83;;;;;;;;;;5058070;28;20271;-79
2023/01/10 07:45:54;;;;;;;53.60;35.20;;;;;;;;;;5052968;28;20668;-80
2023/01/10 07:48:20;;;;;;;50.63;35.50;;;;;;;;;;5052876;28;20192;-79
2023/01/10 07:50:46;;;;;;;57.83;35.50;;;;;;;;;;5067844;28;20661;-81
2023/01/10 07:53:12;;;;;;;51.13;34.47;;;;;;;;;;5050677;28;20193;-80
2023/01/10 07:55:38;;;;;;;50.07;35.30;;;;;;;;;;5068909;28;20215;-80
2023/01/10 07:58:06;;;;;;;55.03;35.90;;;;;;;;;;5051452;28;20177;-81
2023/01/10 08:00:32;;;;;;;52.20;35.30;;;;;;;;;;5068586;28;20200;-78
2023/01/10 08:02:58;;;;;;;52.37;35.60;;;;;;;;;;5068297;28;20649;-79
2023/01/10 08:05:24;;;;;;;56.00;35.70;;;;;;;;;;5051919;28;20186;-79
2023/01/10 08:07:51;;;;;;;50.07;33.63;;;;;;;;;;5068473;28;20193;-81
2023/01/10 08:10:17;;;;;;;57.13;35.60;;;;;;;;;;5050091;28;20681;-80
2023/01/10 08:12:43;;;;;;;49.70;33.20;;;;;;;;;;5068602;28;20180;-79
2023/01/10 08:15:09;;;;;;;52.87;35.10;;;;;;;;;;5067393;28;20185;-80
2023/01/10 08:17:35;;;;;;;48.40;33.20;;;;;;;;;;5051200;28;20268;-84
2023/01/10 08:20:01;;;;;;;49.60;32.10;;;;;;;;;;5057552;28;20189;-78
2023/01/10 08:22:27;;;;;;;52.17;35.30;;;;;;;;;;5050895;28;20211;-79
2023/01/10 08:24:53;;;;;;;53.57;35.53;;;;;;;;;;5052330;28;20174;-79
2023/01/10 08:27:20;;;;;;;52.70;33.80;;;;;;;;;;5051412;28;20235;-81
2023/01/10 08:29:46;;;;;;;53.77;34.00;;;;;;;;;;5050134;28;20189;-79
2023/01/10 08:32:12;;;;;;;50.23;33.60;;;;;;;;;;5050228;28;20204;-78
2023/01/10 08:34:38;;;;;;;52.23;33.33;;;;;;;;;;5055218;28;20181;-80
2023/01/10 08:37:04;;;;;;;52.03;33.50;;;;;;;;;;5084006;28;20208;-79
2023/01/10 08:39:30;;;;;;;53.87;34.83;;;;;;;;;;5051891;28;20173;-80
2023/01/10 08:41:57;;;;;;;47.80;31.83;;;;;;;;;;5050676;28;20213;-81
2023/01/10 08:44:23;;;;;;;49.07;34.17;;;;;;;;;;5061392;28;20707;-78
2023/01/10 08:46:49;;;;;;;50.03;34.43;;;;;;;;;;5060115;28;20191;-80
2023/01/10 08:49:15;;;;;;;49.07;33.93;;;;;;;;;;5060536;28;20553;-78
2023/01/10 08:51:41;;;;;;;51.77;34.03;;;;;;;;;;5064998;28;20249;-79
2023/01/10 08:54:07;;;;;;;49.50;33.47;;;;;;;;;;5056726;28;20192;-81
2023/01/10 08:56:35;;;;;;;52.97;35.30;;;;;;;;;;5071064;28;20185;-79
2023/01/10 08:59:01;;;;;;;45.47;31.50;;;;;;;;;;5052301;28;20185;-81
2023/01/10 09:01:27;;;;;;;47.60;33.30;;;;;;;;;;5059391;28;20219;-78
2023/01/10 09:03:53;;;;;;;48.17;32.20;;;;;;;;;;5064305;28;20169;-79
2023/01/10 09:06:19;;;;;;;54.93;33.20;;;;;;;;;;5054332;28;20706;-81
2023/01/10 09:08:45;;;;;;;52.13;33.83;;;;;;;;;;5074420;28;20202;-78
2023/01/10 09:11:11;;;;;;;49.37;33.33;;;;;;;;;;5052639;28;20206;-80
2023/01/10 09:13:38;;;;;;;46.07;33.03;;;;;;;;;;5060383;28;20177;-81
2023/01/10 09:16:05;;;;;;;48.70;33.20;;;;;;;;;;5053402;28;20261;-80
2023/01/10 09:18:31;;;;;;;50.90;34.73;;;;;;;;;;5025755;28;20192;-79
2023/01/10 09:20:57;;;;;;;49.03;33.33;;;;;;;;;;5034128;28;20204;-79
2023/01/10 09:23:23;;;;;;;51.67;34.43;;;;;;;;;;5059589;28;20185;-81
2023/01/10 09:25:51;;;;;;;47.60;32.57;;;;;;;;;;5057208;28;20207;-79
2023/01/10 09:28:17;;;;;;;49.23;32.77;;;;;;;;;;5060499;28;20207;-81
2023/01/10 09:30:44;;;;;;;49.50;33.27;;;;;;;;;;5055095;28;20189;-79
2023/01/10 09:33:10;;;;;;;45.37;33.00;;;;;;;;;;5052033;28;20185;-81
2023/01/10 09:35:37;;;;;;;47.37;33.87;;;;;;;;;;5078034;28;20181;-79
2023/01/10 09:38:03;;;;;;;51.60;33.70;;;;;;;;;;5057356;28;20181;-81
2023/01/10 09:40:33;;;;;;;47.67;33.60;;;;;;;;;;5075173;28;20559;-81
2023/01/10 09:43:09;;;;;;;50.17;32.87;;;;;;;;;;5053588;28;20251;-80
2023/01/10 09:45:50;;;;;;;47.53;32.87;;;;;;;;;;5050151;28;20203;-79
2023/01/10 09:48:23;;;;;;;47.03;32.77;;;;;;;;;;5050169;28;20196;-79
2023/01/10 09:50:59;;;;;;;47.63;32.97;;;;;;;;;;5056600;28;20622;-81
2023/01/10 09:53:27;;;;;;;51.57;33.47;;;;;;;;;;5066944;28;20879;-81
2023/01/10 09:55:58;;;;;;;48.87;31.87;;;;;;;;;;5053904;28;20546;-79
2023/01/10 09:58:29;;;;;;;48.97;32.03;;;;;;;;;;5055221;28;20177;-80
2023/01/10 10:00:56;;;;;;;51.67;32.83;;;;;;;;;;5072199;28;20624;-80
2023/01/10 10:03:32;;;;;;;50.93;32.93;;;;;;;;;;5053320;28;20192;-79
2023/01/10 10:05:58;;;;;;;51.03;33.70;;;;;;;;;;5067322;28;20545;-81
2023/01/10 10:08:24;;;;;;;46.63;31.87;;;;;;;;;;5053150;28;20245;-80
2023/01/10 10:11:10;;;;;;;51.23;32.57;;;;;;;;;;5070463;28;20810;-80
2023/01/10 10:14:06;;;;;;;47.00;32.23;;;;;;;;;;5057157;28;20281;-80
2023/01/10 10:16:54;;;;;;;45.87;32.37;;;;;;;;;;4997566;28;20273;-80
2023/01/10 10:19:28;;;;;;;51.20;33.40;;;;;;;;;;4988237;28;20190;-81
2023/01/10 10:22:09;;;;;;;48.27;33.27;;;;;;;;;;4988393;28;20206;-79
2023/01/10 10:24:37;;;;;;;50.97;33.20;;;;;;;;;;4990446;28;20183;-81
2023/01/10 10:27:07;;;;;;;44.53;31.40;;;;;;;;;;4988689;28;20355;-80
2023/01/10 10:29:39;;;;;;;48.73;32.17;;;;;;;;;;4988117;28;20180;-80
2023/01/10 10:32:14;;;;;;;49.77;32.20;;;;;;;;;;4988256;28;20262;-80
2023/01/10 10:34:43;;;;;;;48.33;32.37;;;;;;;;;;4988685;28;20203;-81
2023/01/10 10:37:15;;;;;;;49.27;33.13;;;;;;;;;;4973851;28;20545;-82
2023/01/10 10:39:46;;;;;;;46.90;31.50;;;;;;;;;;4995566;28;20203;-80
2023/01/10 10:42:14;;;;;;;51.80;34.30;;;;;;;;;;4988488;28;20224;-80
2023/01/10 10:44:43;;;;;;;48.43;33.80;;;;;;;;;;4989537;28;20188;-81
2023/01/10 10:47:13;;;;;;;53.80;35.17;;;;;;;;;;4989036;28;20188;-81
2023/01/10 10:49:39;;;;;;;50.53;33.67;;;;;;;;;;4988197;28;20180;-81
2023/01/10 10:52:14;;;;;;;49.60;33.20;;;;;;;;;;5002111;28;20553;-80
2023/01/10 10:54:40;;;;;;;49.80;33.70;;;;;;;;;;5069639;28;20180;-79
2023/01/10 10:57:06;;;;;;;48.03;32.57;;;;;;;;;;5055407;28;20189;-79
2023/01/10 10:59:32;;;;;;;49.13;30.97;;;;;;;;;;5053098;28;20188;-79
2023/01/10 11:01:59;;;;;;;48.70;33.17;;;;;;;;;;5054660;28;20209;-79
2023/01/10 11:04:25;;;;;;;47.87;32.33;;;;;;;;;;5052589;28;20282;-79
2023/01/10 11:06:52;;;;;;;46.37;31.37;;;;;;;;;;5053695;28;20303;-81
2023/01/10 11:09:27;;;;;;;47.87;32.53;;;;;;;;;;5070807;28;20188;-80
2023/01/10 11:11:55;;;;;;;45.23;31.47;;;;;;;;;;5054103;28;20181;-80
2023/01/10 11:14:41;;;;;;;44.33;30.77;;;;;;;;;;5051978;28;20231;-80
2023/01/10 11:17:19;;;;;;;46.73;31.53;;;;;;;;;;5053349;28;20199;-81
2023/01/10 11:19:54;;;;;;;48.00;32.10;;;;;;;;;;5068765;28;20180;-81
2023/01/10 11:22:20;;;;;;;45.27;31.23;;;;;;;;;;5066101;28;20199;-79
2023/01/10 11:24:52;;;;;;;46.87;30.27;;;;;;;;;;5052032;28;20230;-79
2023/01/10 11:27:29;;;;;;;43.43;29.80;;;;;;;;;;5052388;28;20189;-80
2023/01/10 11:29:57;;;;;;;45.70;30.70;;;;;;;;;;5046507;28;20825;-81
2023/01/10 11:32:28;;;;;;;46.53;30.43;;;;;;;;;;5051788;28;20200;-80
2023/01/10 11:34:57;;;;;;;46.60;30.63;;;;;;;;;;5046615;28;20697;-80
2023/01/10 11:37:30;;;;;;;42.63;29.93;;;;;;;;;;5054951;28;20280;-82
2023/01/10 11:40:15;;;;;;;42.23;29.40;;;;;;;;;;5054644;28;20231;-80
2023/01/10 11:42:41;;;;;;;44.27;31.43;;;;;;;;;;5068409;28;20937;-79
2023/01/10 11:45:17;;;;;;;41.90;29.23;;;;;;;;;;5050880;28;20189;-79
2023/01/10 11:47:44;;;;;;;42.97;28.77;;;;;;;;;;5051929;28;20329;-80
2023/01/10 11:50:11;;;;;;;45.83;31.47;;;;;;;;;;5050880;28;20186;-82
2023/01/10 11:52:42;;;;;;;46.50;31.50;;;;;;;;;;5053785;28;20196;-79
2023/01/10 11:55:08;;;;;;;47.57;29.63;;;;;;;;;;5053165;28;20177;-81
2023/01/10 11:57:34;;;;;;;43.87;29.73;;;;;;;;;;5050910;28;20185;-79
2023/01/10 12:00:02;;;;;;;43.70;29.57;;;;;;;;;;5050886;28;20181;-81
2023/01/10 12:02:30;;;;;;;43.80;30.60;;;;;;;;;;5051062;28;20272;-81
2023/01/10 12:04:57;;;;;;;43.33;28.83;;;;;;;;;;5046366;28;20224;-80
2023/01/10 12:07:23;;;;;;;43.10;28.77;;;;;;;;;;5052207;28;20177;-80
2023/01/10 12:09:55;;;;;;;42.10;28.77;;;;;;;;;;5051824;28;20196;-79
2023/01/10 12:12:29;;;;;;;38.67;28.33;;;;;;;;;;5064314;28;20247;-79
2023/01/10 12:14:56;;;;;;;42.60;28.33;;;;;;;;;;5064899;28;20188;-79
2023/01/10 12:17:24;;;;;;;42.47;28.40;;;;;;;;;;5050910;28;20544;-79
2023/01/10 12:19:52;;;;;;;39.63;27.30;;;;;;;;;;5055214;28;20197;-79
2023/01/10 12:22:18;;;;;;;43.10;28.67;;;;;;;;;;5049729;28;20244;-80
2023/01/10 12:24:47;;;;;;;42.27;28.47;;;;;;;;;;5050679;28;20185;-80
2023/01/10 12:27:14;;;;;;;39.83;27.40;;;;;;;;;;5050291;28;20885;-80
2023/01/10 12:29:43;;;;;;;39.00;28.00;;;;;;;;;;5067529;28;20190;-79
2023/01/10 12:32:27;;;;;;;38.73;27.60;;;;;;;;;;5050873;28;20189;-80
2023/01/10 12:35:01;;;;;;;41.47;27.43;;;;;;;;;;5068131;28;20642;-79
2023/01/10 12:37:39;;;;;;;37.63;26.60;;;;;;;;;;5082319;28;20185;-78
2023/01/10 12:40:11;;;;;;;37.00;27.60;;;;;;;;;;5084592;28;20214;-79
2023/01/10 12:45:33;;;;;;;40.80;27.33;;;;;;;;;;5067935;28;20222;-79
2023/01/10 12:48:02;;;;;;;39.50;26.80;;;;;;;;;;5049399;28;20189;-79
2023/01/10 12:50:31;;;;;;;38.87;26.50;;;;;;;;;;5049984;28;20675;-79
2023/01/10 12:53:04;;;;;;;38.80;27.20;;;;;;;;;;5067652;28;20173;-80
2023/01/10 12:55:34;;;;;;;38.07;26.23;;;;;;;;;;5052960;28;20188;-78
2023/01/10 12:58:02;;;;;;;35.20;25.37;;;;;;;;;;5084200;28;20179;-81
2023/01/10 13:00:39;;;;;;;36.57;26.83;;;;;;;;;;5050350;28;20212;-80
2023/01/10 13:03:10;;;;;;;40.27;27.13;;;;;;;;;;5048199;28;20843;-80
2023/01/10 13:05:36;;;;;;;40.27;28.27;;;;;;;;;;5049763;28;20180;-79
2023/01/10 13:08:04;;;;;;;38.77;26.87;;;;;;;;;;5048149;28;20188;-80
2023/01/10 13:10:30;;;;;;;38.80;28.70;;;;;;;;;;5050010;28;20191;-80
2023/01/10 13:13:04;;;;;;;38.03;28.17;;;;;;;;;;5049546;28;20226;-79
2023/01/10 13:15:32;;;;;;;40.90;29.20;;;;;;;;;;5050082;28;20854;-79
2023/01/10 13:18:00;;;;;;;39.77;28.50;;;;;;;;;;5049220;28;20178;-80
2023/01/10 13:20:38;;;;;;;40.87;27.27;;;;;;;;;;5049509;28;20759;-80
2023/01/10 13:23:13;;;;;;;40.27;26.90;;;;;;;;;;5049905;28;20735;-80
2023/01/10 13:25:39;;;;;;;39.20;26.97;;;;;;;;;;5067594;28;20198;-81
2023/01/10 13:28:06;;;;;;;39.00;27.40;;;;;;;;;;5068676;28;20171;-80
2023/01/10 13:30:36;;;;;;;34.60;26.17;;;;;;;;;;5049127;28;20279;-80
2023/01/10 13:33:06;;;;;;;35.20;25.47;;;;;;;;;;5050243;28;20188;-79
2023/01/10 13:35:40;;;;;;;37.17;25.87;;;;;;;;;;5068153;28;20177;-80
2023/01/10 13:38:14;;;;;;;37.20;26.17;;;;;;;;;;5049236;28;20211;-81
2023/01/10 13:40:40;;;;;;;36.17;25.50;;;;;;;;;;5048293;28;20212;-80
2023/01/10 13:43:32;;;;;;;34.53;25.23;;;;;;;;;;5048677;28;20736;-79
2023/01/10 13:46:27;;;;;;;33.77;25.30;;;;;;;;;;5068045;28;20215;-80
2023/01/10 13:48:55;;;;;;;39.70;27.67;;;;;;;;;;5049845;28;20238;-81
2023/01/10 13:51:22;;;;;;;38.60;26.23;;;;;;;;;;5065285;28;20660;-79
2023/01/10 13:53:50;;;;;;;42.47;26.77;;;;;;;;;;5049601;28;20177;-80
2023/01/10 13:56:28;;;;;;;39.80;27.10;;;;;;;;;;5054953;28;20590;-81
2023/01/10 14:04:26;;;;;;;36.90;26.17;;;;;;;;;;5065971;28;20234;-80
2023/01/10 14:06:56;;;;;;;37.13;25.90;;;;;;;;;;5049971;28;20567;-80
2023/01/10 14:09:22;;;;;;;37.20;25.47;;;;;;;;;;5080936;28;20181;-78
2023/01/10 14:11:53;;;;;;;43.73;26.93;;;;;;;;;;5053886;28;20195;-79
2023/01/10 14:14:24;;;;;;;44.10;28.73;;;;;;;;;;5049008;28;20181;-79
2023/01/10 14:16:52;;;;;;;39.20;25.77;;;;;;;;;;5049493;28;20181;-79
2023/01/10 14:19:24;;;;;;;40.93;26.43;;;;;;;;;;5051407;28;20188;-80
2023/01/10 14:21:54;;;;;;;37.50;26.10;;;;;;;;;;5083859;28;20213;-79
2023/01/10 14:24:28;;;;;;;33.70;23.97;;;;;;;;;;5053801;28;20246;-81
2023/01/10 14:26:55;;;;;;;35.23;25.27;;;;;;;;;;5047164;28;20222;-79
2023/01/10 14:29:21;;;;;;;37.47;24.50;;;;;;;;;;5049665;28;20180;-80
2023/01/10 14:31:51;;;;;;;33.30;22.87;;;;;;;;;;5049201;28;20185;-80
2023/01/10 14:34:22;;;;;;;34.33;23.50;;;;;;;;;;5049945;28;20225;-79
2023/01/10 14:36:58;;;;;;;37.90;24.87;;;;;;;;;;5069191;28;20189;-80
2023/01/10 14:39:25;;;;;;;34.83;24.07;;;;;;;;;;5051448;28;20215;-79
2023/01/10 14:41:54;;;;;;;36.53;24.10;;;;;;;;;;5053876;28;20212;-79